Burns Flat, Oklahoma
Current Conditions -  °F | °C
As of 4:20 PM on Wednesday 22 Oct 2014 (Local Time) from KCSM Reporting Station
Moderate Rain Moderate Rain  
Wind Chill: 62°   Ceiling: 8000
Heat Index: 62°   Visibility: 2.5mi
Dew Point: 58°   Wind: 10mph
Humidity: 86%   Direction: 240°WSW
Pressure: 30.12"   Gusts: NA
Location:  35.35°N, 99.17°W
Report Text: KCSM 222120Z 24009KT 2 1/2SM RA BR FEW060 BKN080 OVC095 17/14 A3012 RMK AO2 P0006 T01670144
Loading
Personal Weather Stations






























Interactive Weather Map New forecast layout! Learn more

10-Day Weather Forecast

Advertisements
Track Severe Weather on mobile